sensor_id;sensor_type;location;lat;lon;timestamp;pressure;altitude;pressure_sealevel;temperature;humidity
82379;BME280;72008;48.140;11.614;2024-01-11T00:00:30;96232.13;;;-2.42;73.54
82379;BME280;72008;48.140;11.614;2024-01-11T00:01:31;96235.47;;;-2.18;73.50
82379;BME280;72008;48.140;11.614;2024-01-11T00:02:31;96234.00;;;-2.09;73.67
82379;BME280;72008;48.140;11.614;2024-01-11T00:03:32;96235.41;;;-2.06;71.95
82379;BME280;72008;48.140;11.614;2024-01-11T00:04:32;96237.41;;;-1.96;72.76
82379;BME280;72008;48.140;11.614;2024-01-11T00:05:33;96235.75;;;-1.80;72.25
82379;BME280;72008;48.140;11.614;2024-01-11T00:06:40;96229.69;;;-1.93;71.84
82379;BME280;72008;48.140;11.614;2024-01-11T00:07:40;96230.63;;;-2.04;72.13
82379;BME280;72008;48.140;11.614;2024-01-11T00:08:41;96234.66;;;-1.85;72.31
82379;BME280;72008;48.140;11.614;2024-01-11T00:09:42;96232.72;;;-2.06;71.65
82379;BME280;72008;48.140;11.614;2024-01-11T00:10:42;96237.28;;;-2.07;72.05
82379;BME280;72008;48.140;11.614;2024-01-11T00:11:42;96223.59;;;-2.22;72.06
82379;BME280;72008;48.140;11.614;2024-01-11T00:12:43;96233.69;;;-2.12;71.69
82379;BME280;72008;48.140;11.614;2024-01-11T00:13:43;96228.66;;;-2.25;71.56
82379;BME280;72008;48.140;11.614;2024-01-11T00:14:44;96230.78;;;-2.27;72.66
82379;BME280;72008;48.140;11.614;2024-01-11T00:15:44;96235.16;;;-2.21;72.44
82379;BME280;72008;48.140;11.614;2024-01-11T00:16:45;96237.59;;;-2.03;72.36
82379;BME280;72008;48.140;11.614;2024-01-11T00:17:45;96238.41;;;-1.86;72.40
82379;BME280;72008;48.140;11.614;2024-01-11T00:19:05;96230.63;;;-2.04;71.63
82379;BME280;72008;48.140;11.614;2024-01-11T00:20:06;96232.53;;;-2.16;72.12
82379;BME280;72008;48.140;11.614;2024-01-11T00:21:07;96237.44;;;-2.30;71.95
82379;BME280;72008;48.140;11.614;2024-01-11T00:22:07;96234.97;;;-2.32;72.59
82379;BME280;72008;48.140;11.614;2024-01-11T00:23:08;96239.38;;;-2.25;72.11
82379;BME280;72008;48.140;11.614;2024-01-11T00:24:08;96237.19;;;-2.29;72.64
82379;BME280;72008;48.140;11.614;2024-01-11T00:25:08;96236.63;;;-2.31;72.17
82379;BME280;72008;48.140;11.614;2024-01-11T00:26:12;96227.59;;;-2.24;72.45
82379;BME280;72008;48.140;11.614;2024-01-11T00:27:12;96232.47;;;-2.21;73.09
82379;BME280;72008;48.140;11.614;2024-01-11T00:28:13;96235.88;;;-2.26;72.53
82379;BME280;72008;48.140;11.614;2024-01-11T00:29:13;96229.53;;;-2.54;72.82
82379;BME280;72008;48.140;11.614;2024-01-11T00:30:14;96234.31;;;-2.56;72.70
82379;BME280;72008;48.140;11.614;2024-01-11T00:31:14;96236.44;;;-2.41;73.18
82379;BME280;72008;48.140;11.614;2024-01-11T00:32:15;96238.88;;;-2.39;73.07
82379;BME280;72008;48.140;11.614;2024-01-11T00:33:15;96234.50;;;-2.29;73.23
82379;BME280;72008;48.140;11.614;2024-01-11T00:34:16;96234.81;;;-2.08;72.48
82379;BME280;72008;48.140;11.614;2024-01-11T00:35:16;96233.03;;;-2.36;72.13
82379;BME280;72008;48.140;11.614;2024-01-11T00:36:18;96227.81;;;-2.43;72.70
82379;BME280;72008;48.140;11.614;2024-01-11T00:37:18;96230.59;;;-2.38;72.79
82379;BME280;72008;48.140;11.614;2024-01-11T00:38:18;96232.06;;;-2.13;73.46
82379;BME280;72008;48.140;11.614;2024-01-11T00:39:19;96228.66;;;-2.09;72.55
82379;BME280;72008;48.140;11.614;2024-01-11T00:40:19;96228.66;;;-2.25;71.83
82379;BME280;72008;48.140;11.614;2024-01-11T00:41:20;96233.69;;;-2.12;72.73
82379;BME280;72008;48.140;11.614;2024-01-11T00:42:20;96234.09;;;-2.20;72.47
82379;BME280;72008;48.140;11.614;2024-01-11T00:43:21;96233.94;;;-2.14;72.00
82379;BME280;72008;48.140;11.614;2024-01-11T00:44:21;96236.38;;;-2.12;72.18
82379;BME280;72008;48.140;11.614;2024-01-11T00:45:22;96230.66;;;-1.99;72.56
82379;BME280;72008;48.140;11.614;2024-01-11T00:46:22;96235.63;;;-1.91;72.25
82379;BME280;72008;48.140;11.614;2024-01-11T00:47:23;96238.31;;;-1.91;71.30
82379;BME280;72008;48.140;11.614;2024-01-11T00:48:23;96238.06;;;-2.23;71.18
82379;BME280;72008;48.140;11.614;2024-01-11T00:49:23;96231.41;;;-2.54;72.96
82379;BME280;72008;48.140;11.614;2024-01-11T00:50:24;96231.56;;;-2.44;72.79
82379;BME280;72008;48.140;11.614;2024-01-11T00:51:24;96229.25;;;-2.69;72.48
82379;BME280;72008;48.140;11.614;2024-01-11T00:52:25;96231.09;;;-2.86;73.51
82379;BME280;72008;48.140;11.614;2024-01-11T00:53:25;96233.47;;;-2.73;73.15
82379;BME280;72008;48.140;11.614;2024-01-11T00:54:26;96234.75;;;-2.76;73.13
82379;BME280;72008;48.140;11.614;2024-01-11T00:55:26;96230.88;;;-2.68;72.77
82379;BME280;72008;48.140;11.614;2024-01-11T00:56:27;96236.28;;;-2.80;72.66
82379;BME280;72008;48.140;11.614;2024-01-11T00:57:27;96241.50;;;-2.73;73.17
82379;BME280;72008;48.140;11.614;2024-01-11T00:58:28;96232.75;;;-2.68;73.81
82379;BME280;72008;48.140;11.614;2024-01-11T00:59:28;96245.78;;;-2.43;73.32
82379;BME280;72008;48.140;11.614;2024-01-11T01:00:29;96240.56;;;-2.50;73.07
82379;BME280;72008;48.140;11.614;2024-01-11T01:01:29;96246.41;;;-2.53;72.53
82379;BME280;72008;48.140;11.614;2024-01-11T01:02:30;96243.56;;;-2.46;72.20
82379;BME280;72008;48.140;11.614;2024-01-11T01:03:30;96242.78;;;-2.30;72.30
82379;BME280;72008;48.140;11.614;2024-01-11T01:04:31;96244.09;;;-2.16;72.24
82379;BME280;72008;48.140;11.614;2024-01-11T01:05:31;96242.78;;;-2.13;71.91
82379;BME280;72008;48.140;11.614;2024-01-11T01:06:31;96253.19;;;-2.00;72.16
82379;BME280;72008;48.140;11.614;2024-01-11T01:07:32;96253.09;;;-2.22;71.75
82379;BME280;72008;48.140;11.614;2024-01-11T01:08:33;96253.31;;;-2.40;72.36
82379;BME280;72008;48.140;11.614;2024-01-11T01:09:33;96251.97;;;-2.26;72.51
82379;BME280;72008;48.140;11.614;2024-01-11T01:10:34;96244.66;;;-2.14;72.26
82379;BME280;72008;48.140;11.614;2024-01-11T01:11:34;96246.03;;;-2.11;72.18
82379;BME280;72008;48.140;11.614;2024-01-11T01:12:35;96245.38;;;-2.01;71.80
82379;BME280;72008;48.140;11.614;2024-01-11T01:13:35;96245.78;;;-1.93;72.01
82379;BME280;72008;48.140;11.614;2024-01-11T01:14:41;96243.84;;;-1.97;71.32
82379;BME280;72008;48.140;11.614;2024-01-11T01:15:41;96249.03;;;-1.91;72.22
82379;BME280;72008;48.140;11.614;2024-01-11T01:16:42;96241.97;;;-1.97;71.68
82379;BME280;72008;48.140;11.614;2024-01-11T01:17:42;96248.00;;;-2.07;71.57
82379;BME280;72008;48.140;11.614;2024-01-11T01:18:43;96245.88;;;-2.21;71.07
82379;BME280;72008;48.140;11.614;2024-01-11T01:19:44;96251.03;;;-2.65;71.91
82379;BME280;72008;48.140;11.614;2024-01-11T01:20:44;96250.34;;;-2.72;72.86
82379;BME280;72008;48.140;11.614;2024-01-11T01:21:45;96245.78;;;-2.60;73.02
82379;BME280;72008;48.140;11.614;2024-01-11T01:22:45;96249.53;;;-2.44;73.06
82379;BME280;72008;48.140;11.614;2024-01-11T01:23:45;96250.09;;;-2.25;72.89
82379;BME280;72008;48.140;11.614;2024-01-11T01:24:46;96247.66;;;-2.10;72.20
82379;BME280;72008;48.140;11.614;2024-01-11T01:25:46;96247.56;;;-2.32;71.76
82379;BME280;72008;48.140;11.614;2024-01-11T01:26:47;96243.91;;;-2.26;72.47
82379;BME280;72008;48.140;11.614;2024-01-11T01:27:47;96248.56;;;-2.21;72.09
82379;BME280;72008;48.140;11.614;2024-01-11T01:28:48;96254.66;;;-2.09;71.83
82379;BME280;72008;48.140;11.614;2024-01-11T01:29:48;96247.75;;;-2.39;71.82
82379;BME280;72008;48.140;11.614;2024-01-11T01:30:49;96258.94;;;-2.42;72.19
82379;BME280;72008;48.140;11.614;2024-01-11T01:31:49;96252.66;;;-2.64;72.17
82379;BME280;72008;48.140;11.614;2024-01-11T01:32:50;96257.03;;;-2.58;72.64
82379;BME280;72008;48.140;11.614;2024-01-11T01:33:50;96250.97;;;-2.54;71.84
82379;BME280;72008;48.140;11.614;2024-01-11T01:34:51;96250.66;;;-2.86;71.88
82379;BME280;72008;48.140;11.614;2024-01-11T01:35:51;96256.63;;;-2.95;72.87
82379;BME280;72008;48.140;11.614;2024-01-11T01:36:52;96256.47;;;-2.89;73.20
82379;BME280;72008;48.140;11.614;2024-01-11T01:37:52;96256.19;;;-2.76;72.57
82379;BME280;72008;48.140;11.614;2024-01-11T01:38:53;96261.00;;;-2.61;72.47
82379;BME280;72008;48.140;11.614;2024-01-11T01:39:53;96260.19;;;-2.61;72.71
82379;BME280;72008;48.140;11.614;2024-01-11T01:40:53;96258.44;;;-2.56;72.19
82379;BME280;72008;48.140;11.614;2024-01-11T01:41:54;96261.53;;;-2.76;72.03
82379;BME280;72008;48.140;11.614;2024-01-11T01:42:58;96263.34;;;-2.93;72.62
82379;BME280;72008;48.140;11.614;2024-01-11T01:43:59;96264.03;;;-2.86;73.60
82379;BME280;72008;48.140;11.614;2024-01-11T01:44:59;96266.63;;;-2.62;73.87
82379;BME280;72008;48.140;11.614;2024-01-11T01:46:00;96263.03;;;-2.68;71.93
82379;BME280;72008;48.140;11.614;2024-01-11T01:47:02;96263.84;;;-2.67;72.22
82379;BME280;72008;48.140;11.614;2024-01-11T01:48:04;96271.22;;;-2.75;72.19
82379;BME280;72008;48.140;11.614;2024-01-11T01:49:25;96269.66;;;-2.99;73.15
82379;BME280;72008;48.140;11.614;2024-01-11T01:50:26;96272.56;;;-2.60;73.00
82379;BME280;72008;48.140;11.614;2024-01-11T01:51:29;96259.34;;;-2.50;72.97
82379;BME280;72008;48.140;11.614;2024-01-11T01:52:33;96273.31;;;-2.48;71.57
82379;BME280;72008;48.140;11.614;2024-01-11T01:53:34;96272.84;;;-2.73;71.85
82379;BME280;72008;48.140;11.614;2024-01-11T01:54:35;96274.75;;;-2.86;72.71
82379;BME280;72008;48.140;11.614;2024-01-11T01:55:36;96282.09;;;-2.93;72.65
82379;BME280;72008;48.140;11.614;2024-01-11T01:56:36;96274.50;;;-2.84;72.36
82379;BME280;72008;48.140;11.614;2024-01-11T01:57:39;96272.09;;;-2.86;72.81
82379;BME280;72008;48.140;11.614;2024-01-11T01:58:42;96273.44;;;-2.71;72.47
82379;BME280;72008;48.140;11.614;2024-01-11T01:59:43;96278.81;;;-2.55;72.49
82379;BME280;72008;48.140;11.614;2024-01-11T02:00:45;96268.91;;;-2.54;71.81
82379;BME280;72008;48.140;11.614;2024-01-11T02:01:48;96283.19;;;-2.48;71.60
82379;BME280;72008;48.140;11.614;2024-01-11T02:02:50;96273.69;;;-2.27;72.84
82379;BME280;72008;48.140;11.614;2024-01-11T02:03:52;96277.22;;;-2.39;71.91
82379;BME280;72008;48.140;11.614;2024-01-11T02:04:54;96270.22;;;-2.40;71.59
82379;BME280;72008;48.140;11.614;2024-01-11T02:05:56;96276.91;;;-2.42;72.03
82379;BME280;72008;48.140;11.614;2024-01-11T02:06:57;96282.06;;;-2.53;71.13
82379;BME280;72008;48.140;11.614;2024-01-11T02:08:01;96279.44;;;-2.64;71.66
82379;BME280;72008;48.140;11.614;2024-01-11T02:09:06;96277.66;;;-2.59;72.07
82379;BME280;72008;48.140;11.614;2024-01-11T02:10:07;96286.09;;;-2.38;71.97
82379;BME280;72008;48.140;11.614;2024-01-11T02:11:07;96279.03;;;-2.27;71.10
82379;BME280;72008;48.140;11.614;2024-01-11T02:12:08;96279.38;;;-2.24;71.06
82379;BME280;72008;48.140;11.614;2024-01-11T02:13:10;96276.66;;;-2.41;71.51
82379;BME280;72008;48.140;11.614;2024-01-11T02:14:11;96278.75;;;-2.43;72.09
82379;BME280;72008;48.140;11.614;2024-01-11T02:15:11;96282.41;;;-2.49;71.72
82379;BME280;72008;48.140;11.614;2024-01-11T02:16:13;96279.81;;;-2.72;71.86
82379;BME280;72008;48.140;11.614;2024-01-11T02:17:13;96279.97;;;-2.79;71.53
82379;BME280;72008;48.140;11.614;2024-01-11T02:18:14;96284.47;;;-2.68;71.56
82379;BME280;72008;48.140;11.614;2024-01-11T02:19:18;96284.75;;;-2.81;71.29
82379;BME280;72008;48.140;11.614;2024-01-11T02:20:19;96273.22;;;-2.82;72.06
82379;BME280;72008;48.140;11.614;2024-01-11T02:21:22;96273.69;;;-2.85;72.31
82379;BME280;72008;48.140;11.614;2024-01-11T02:22:35;96281.91;;;-3.03;72.43
82379;BME280;72008;48.140;11.614;2024-01-11T02:23:43;96276.47;;;-2.80;72.76
82379;BME280;72008;48.140;11.614;2024-01-11T02:24:43;96275.19;;;-2.77;71.82
82379;BME280;72008;48.140;11.614;2024-01-11T02:25:44;96277.84;;;-3.06;72.03
82379;BME280;72008;48.140;11.614;2024-01-11T02:27:04;96277.38;;;-3.03;72.91
82379;BME280;72008;48.140;11.614;2024-01-11T02:28:04;96279.34;;;-2.98;72.48
82379;BME280;72008;48.140;11.614;2024-01-11T02:29:05;96273.94;;;-3.27;73.16
82379;BME280;72008;48.140;11.614;2024-01-11T02:30:06;96273.31;;;-3.17;73.32
82379;BME280;72008;48.140;11.614;2024-01-11T02:31:06;96267.59;;;-3.09;72.62
82379;BME280;72008;48.140;11.614;2024-01-11T02:32:07;96272.50;;;-3.17;73.24
82379;BME280;72008;48.140;11.614;2024-01-11T02:33:08;96270.59;;;-3.34;73.02
82379;BME280;72008;48.140;11.614;2024-01-11T02:34:10;96278.75;;;-3.52;73.44
82379;BME280;72008;48.140;11.614;2024-01-11T02:35:10;96269.53;;;-3.33;73.19
82379;BME280;72008;48.140;11.614;2024-01-11T02:36:12;96271.59;;;-3.23;73.33
82379;BME280;72008;48.140;11.614;2024-01-11T02:37:13;96275.16;;;-3.06;72.86
82379;BME280;72008;48.140;11.614;2024-01-11T02:38:14;96273.22;;;-2.82;72.34
82379;BME280;72008;48.140;11.614;2024-01-11T02:39:16;96266.09;;;-2.76;71.68
82379;BME280;72008;48.140;11.614;2024-01-11T02:40:18;96263.41;;;-2.76;71.79
82379;BME280;72008;48.140;11.614;2024-01-11T02:41:20;96265.63;;;-2.73;72.46
82379;BME280;72008;48.140;11.614;2024-01-11T02:42:20;96263.03;;;-2.68;71.74
82379;BME280;72008;48.140;11.614;2024-01-11T02:43:21;96270.31;;;-2.80;71.78
82379;BME280;72008;48.140;11.614;2024-01-11T02:44:21;96266.69;;;-2.74;72.27
82379;BME280;72008;48.140;11.614;2024-01-11T02:45:22;96257.03;;;-2.75;72.32
82379;BME280;72008;48.140;11.614;2024-01-11T02:46:22;96266.38;;;-2.61;72.07
82379;BME280;72008;48.140;11.614;2024-01-11T02:47:22;96259.94;;;-2.77;71.12
82379;BME280;72008;48.140;11.614;2024-01-11T02:48:27;96261.78;;;-2.77;71.65
82379;BME280;72008;48.140;11.614;2024-01-11T02:49:28;96264.03;;;-2.57;72.08
82379;BME280;72008;48.140;11.614;2024-01-11T02:50:28;96257.53;;;-2.61;71.33
82379;BME280;72008;48.140;11.614;2024-01-11T02:51:28;96259.06;;;-2.65;71.36
82379;BME280;72008;48.140;11.614;2024-01-11T02:52:29;96258.63;;;-2.74;71.44
82379;BME280;72008;48.140;11.614;2024-01-11T02:53:29;96254.94;;;-2.85;71.66
82379;BME280;72008;48.140;11.614;2024-01-11T02:54:30;96246.91;;;-2.85;71.96
82379;BME280;72008;48.140;11.614;2024-01-11T02:55:30;96255.63;;;-2.78;71.89
82379;BME280;72008;48.140;11.614;2024-01-11T02:56:31;96248.34;;;-2.65;72.66
82379;BME280;72008;48.140;11.614;2024-01-11T02:57:31;96244.69;;;-2.59;72.30
82379;BME280;72008;48.140;11.614;2024-01-11T02:58:31;96248.63;;;-2.50;71.52
82379;BME280;72008;48.140;11.614;2024-01-11T02:59:32;96248.13;;;-2.47;71.92
82379;BME280;72008;48.140;11.614;2024-01-11T03:00:32;96247.91;;;-2.45;70.84
82379;BME280;72008;48.140;11.614;2024-01-11T03:01:33;96251.72;;;-2.41;70.61
82379;BME280;72008;48.140;11.614;2024-01-11T03:02:33;96246.19;;;-2.35;71.36
82379;BME280;72008;48.140;11.614;2024-01-11T03:03:34;96247.00;;;-2.51;71.21
82379;BME280;72008;48.140;11.614;2024-01-11T03:04:34;96249.19;;;-2.48;71.95
82379;BME280;72008;48.140;11.614;2024-01-11T03:05:35;96239.56;;;-2.78;71.29
82379;BME280;72008;48.140;11.614;2024-01-11T03:06:35;96251.41;;;-2.73;71.62
82379;BME280;72008;48.140;11.614;2024-01-11T03:07:35;96242.50;;;-2.62;71.68
82379;BME280;72008;48.140;11.614;2024-01-11T03:08:36;96246.34;;;-2.87;71.91
82379;BME280;72008;48.140;11.614;2024-01-11T03:09:36;96241.28;;;-2.71;72.05
82379;BME280;72008;48.140;11.614;2024-01-11T03:10:37;96243.38;;;-2.73;71.36
82379;BME280;72008;48.140;11.614;2024-01-11T03:11:38;96251.72;;;-2.87;71.74
82379;BME280;72008;48.140;11.614;2024-01-11T03:12:39;96246.75;;;-2.78;72.08
82379;BME280;72008;48.140;11.614;2024-01-11T03:13:40;96244.03;;;-2.66;71.91
82379;BME280;72008;48.140;11.614;2024-01-11T03:14:40;96241.69;;;-2.46;72.04
82379;BME280;72008;48.140;11.614;2024-01-11T03:15:41;96251.22;;;-2.38;71.46
82379;BME280;72008;48.140;11.614;2024-01-11T03:16:41;96242.47;;;-2.34;72.01
82379;BME280;72008;48.140;11.614;2024-01-11T03:17:41;96249.19;;;-2.31;70.99
82379;BME280;72008;48.140;11.614;2024-01-11T03:18:42;96240.03;;;-2.18;71.45
82379;BME280;72008;48.140;11.614;2024-01-11T03:19:42;96233.44;;;-2.11;70.88
82379;BME280;72008;48.140;11.614;2024-01-11T03:20:43;96234.69;;;-2.18;70.25
82379;BME280;72008;48.140;11.614;2024-01-11T03:21:43;96235.78;;;-2.31;70.11
82379;BME280;72008;48.140;11.614;2024-01-11T03:22:47;96232.69;;;-2.40;70.94
82379;BME280;72008;48.140;11.614;2024-01-11T03:23:47;96224.41;;;-2.55;71.10
82379;BME280;72008;48.140;11.614;2024-01-11T03:24:48;96229.75;;;-2.55;71.78
82379;BME280;72008;48.140;11.614;2024-01-11T03:25:48;96228.09;;;-2.73;71.33
82379;BME280;72008;48.140;11.614;2024-01-11T03:26:48;96230.34;;;-2.53;71.67
82379;BME280;72008;48.140;11.614;2024-01-11T03:27:49;96231.41;;;-2.54;70.54
82379;BME280;72008;48.140;11.614;2024-01-11T03:28:49;96227.22;;;-2.62;71.03
82379;BME280;72008;48.140;11.614;2024-01-11T03:29:50;96230.97;;;-2.63;71.01
82379;BME280;72008;48.140;11.614;2024-01-11T03:30:50;96226.25;;;-2.56;71.62
82379;BME280;72008;48.140;11.614;2024-01-11T03:31:51;96226.88;;;-2.82;71.71
82379;BME280;72008;48.140;11.614;2024-01-11T03:32:51;96223.69;;;-2.79;71.49
82379;BME280;72008;48.140;11.614;2024-01-11T03:33:51;96231.03;;;-2.75;71.73
82379;BME280;72008;48.140;11.614;2024-01-11T03:34:52;96230.13;;;-2.63;71.96
82379;BME280;72008;48.140;11.614;2024-01-11T03:35:52;96229.38;;;-2.76;71.81
82379;BME280;72008;48.140;11.614;2024-01-11T03:36:53;96226.31;;;-2.67;71.04
82379;BME280;72008;48.140;11.614;2024-01-11T03:37:53;96228.69;;;-2.71;71.15
82379;BME280;72008;48.140;11.614;2024-01-11T03:38:54;96226.00;;;-2.71;71.68
82379;BME280;72008;48.140;11.614;2024-01-11T03:39:54;96225.69;;;-2.75;71.14
82379;BME280;72008;48.140;11.614;2024-01-11T03:40:54;96223.41;;;-2.66;70.96
82379;BME280;72008;48.140;11.614;2024-01-11T03:41:55;96220.66;;;-2.71;71.76
82379;BME280;72008;48.140;11.614;2024-01-11T03:42:55;96220.00;;;-2.61;71.44
82379;BME280;72008;48.140;11.614;2024-01-11T03:43:56;96221.88;;;-2.62;71.12
82379;BME280;72008;48.140;11.614;2024-01-11T03:44:56;96216.56;;;-2.73;71.72
82379;BME280;72008;48.140;11.614;2024-01-11T03:45:56;96217.72;;;-2.69;71.38
82379;BME280;72008;48.140;11.614;2024-01-11T03:46:57;96224.31;;;-2.60;71.66
82379;BME280;72008;48.140;11.614;2024-01-11T03:47:57;96219.84;;;-2.55;71.81
82379;BME280;72008;48.140;11.614;2024-01-11T03:48:58;96222.03;;;-2.52;71.82
82379;BME280;72008;48.140;11.614;2024-01-11T03:49:58;96217.75;;;-2.36;71.47
82379;BME280;72008;48.140;11.614;2024-01-11T03:50:59;96216.94;;;-2.53;70.47
82379;BME280;72008;48.140;11.614;2024-01-11T03:51:59;96212.53;;;-2.59;71.22
82379;BME280;72008;48.140;11.614;2024-01-11T03:52:59;96209.13;;;-2.55;70.81
82379;BME280;72008;48.140;11.614;2024-01-11T03:54:00;96216.34;;;-2.55;71.15
82379;BME280;72008;48.140;11.614;2024-01-11T03:55:00;96204.81;;;-2.56;70.93
82379;BME280;72008;48.140;11.614;2024-01-11T03:56:01;96211.38;;;-2.63;71.05
82379;BME280;72008;48.140;11.614;2024-01-11T03:57:01;96204.09;;;-2.68;72.01
82379;BME280;72008;48.140;11.614;2024-01-11T03:58:02;96207.47;;;-2.72;71.65
82379;BME280;72008;48.140;11.614;2024-01-11T03:59:02;96205.38;;;-2.70;72.56
82379;BME280;72008;48.140;11.614;2024-01-11T04:00:03;96205.78;;;-2.62;71.87
82379;BME280;72008;48.140;11.614;2024-01-11T04:01:04;96206.69;;;-2.56;71.69
82379;BME280;72008;48.140;11.614;2024-01-11T04:02:04;96202.66;;;-2.42;71.74
82379;BME280;72008;48.140;11.614;2024-01-11T04:03:06;96206.22;;;-2.53;71.58
82379;BME280;72008;48.140;11.614;2024-01-11T04:04:07;96205.88;;;-2.40;71.30
82379;BME280;72008;48.140;11.614;2024-01-11T04:05:07;96204.03;;;-2.39;70.89
82379;BME280;72008;48.140;11.614;2024-01-11T04:06:08;96202.81;;;-2.32;70.88
82379;BME280;72008;48.140;11.614;2024-01-11T04:07:08;96208.41;;;-2.50;70.56
82379;BME280;72008;48.140;11.614;2024-01-11T04:08:09;96209.72;;;-2.98;71.50
82379;BME280;72008;48.140;11.614;2024-01-11T04:09:09;96196.81;;;-2.84;71.68
82379;BME280;72008;48.140;11.614;2024-01-11T04:10:10;96202.13;;;-2.72;71.61
82379;BME280;72008;48.140;11.614;2024-01-11T04:11:10;96203.34;;;-2.63;71.07
82379;BME280;72008;48.140;11.614;2024-01-11T04:12:11;96202.47;;;-2.52;71.68
82379;BME280;72008;48.140;11.614;2024-01-11T04:13:11;96201.34;;;-2.56;71.80
82379;BME280;72008;48.140;11.614;2024-01-11T04:14:11;96204.44;;;-2.47;71.32
82379;BME280;72008;48.140;11.614;2024-01-11T04:15:12;96201.84;;;-2.42;71.26
82379;BME280;72008;48.140;11.614;2024-01-11T04:16:12;96203.56;;;-2.36;71.59
82379;BME280;72008;48.140;11.614;2024-01-11T04:17:13;96204.03;;;-2.22;72.20
82379;BME280;72008;48.140;11.614;2024-01-11T04:18:13;96201.09;;;-2.21;71.87
82379;BME280;72008;48.140;11.614;2024-01-11T04:19:14;96211.03;;;-2.21;70.69
82379;BME280;72008;48.140;11.614;2024-01-11T04:20:14;96214.03;;;-2.18;71.71
82379;BME280;72008;48.140;11.614;2024-01-11T04:21:25;96213.84;;;-2.11;71.49
82379;BME280;72008;48.140;11.614;2024-01-11T04:22:28;96204.91;;;-2.17;70.97
82379;BME280;72008;48.140;11.614;2024-01-11T04:23:28;96210.03;;;-2.49;71.44
82379;BME280;72008;48.140;11.614;2024-01-11T04:24:29;96210.94;;;-2.60;71.56
82379;BME280;72008;48.140;11.614;2024-01-11T04:25:29;96207.09;;;-2.64;71.50
82379;BME280;72008;48.140;11.614;2024-01-11T04:26:29;96209.31;;;-2.44;72.76
82379;BME280;72008;48.140;11.614;2024-01-11T04:27:30;96205.81;;;-2.45;71.54
82379;BME280;72008;48.140;11.614;2024-01-11T04:28:30;96213.53;;;-2.32;71.95
82379;BME280;72008;48.140;11.614;2024-01-11T04:29:31;96207.06;;;-2.19;71.10
82379;BME280;72008;48.140;11.614;2024-01-11T04:30:31;96207.69;;;-2.12;70.93
82379;BME280;72008;48.140;11.614;2024-01-11T04:31:32;96206.22;;;-2.02;71.45
82379;BME280;72008;48.140;11.614;2024-01-11T04:32:32;96219.88;;;-2.04;71.34
82379;BME280;72008;48.140;11.614;2024-01-11T04:33:33;96214.88;;;-1.95;71.35
82379;BME280;72008;48.140;11.614;2024-01-11T04:34:36;96224.19;;;-2.03;70.92
82379;BME280;72008;48.140;11.614;2024-01-11T04:35:37;96216.75;;;-1.96;70.67
82379;BME280;72008;48.140;11.614;2024-01-11T04:36:37;96221.09;;;-1.95;70.55
82379;BME280;72008;48.140;11.614;2024-01-11T04:37:38;96226.28;;;-2.05;71.17
82379;BME280;72008;48.140;11.614;2024-01-11T04:38:39;96227.94;;;-2.04;71.69
82379;BME280;72008;48.140;11.614;2024-01-11T04:39:39;96226.28;;;-2.05;71.39
82379;BME280;72008;48.140;11.614;2024-01-11T04:40:40;96226.59;;;-2.01;71.36
82379;BME280;72008;48.140;11.614;2024-01-11T04:41:40;96221.19;;;-2.07;70.62
82379;BME280;72008;48.140;11.614;2024-01-11T04:42:41;96232.06;;;-2.13;71.46
82379;BME280;72008;48.140;11.614;2024-01-11T04:43:43;96226.13;;;-2.15;71.22
82379;BME280;72008;48.140;11.614;2024-01-11T04:44:43;96230.53;;;-2.09;71.48
82379;BME280;72008;48.140;11.614;2024-01-11T04:45:44;96232.94;;;-2.08;71.06
82379;BME280;72008;48.140;11.614;2024-01-11T04:46:44;96229.63;;;-1.98;70.44
82379;BME280;72008;48.140;11.614;2024-01-11T04:47:45;96226.69;;;-1.96;70.49
82379;BME280;72008;48.140;11.614;2024-01-11T04:48:46;96236.13;;;-2.11;70.47
82379;BME280;72008;48.140;11.614;2024-01-11T04:49:47;96230.84;;;-2.06;71.03
82379;BME280;72008;48.140;11.614;2024-01-11T04:50:56;96230.13;;;-2.01;70.99
82379;BME280;72008;48.140;11.614;2024-01-11T04:51:57;96226.38;;;-2.00;70.22
82379;BME280;72008;48.140;11.614;2024-01-11T04:52:57;96228.66;;;-1.92;69.97
82379;BME280;72008;48.140;11.614;2024-01-11T04:53:58;96229.59;;;-1.81;70.20
82379;BME280;72008;48.140;11.614;2024-01-11T04:54:58;96221.63;;;-1.93;70.04
82379;BME280;72008;48.140;11.614;2024-01-11T04:55:58;96224.91;;;-1.91;70.50
82379;BME280;72008;48.140;11.614;2024-01-11T04:56:59;96230.75;;;-1.94;71.15
82379;BME280;72008;48.140;11.614;2024-01-11T04:57:59;96222.97;;;-2.12;69.94
82379;BME280;72008;48.140;11.614;2024-01-11T04:59:00;96233.03;;;-2.02;70.04
82379;BME280;72008;48.140;11.614;2024-01-11T05:00:00;96228.56;;;-2.14;70.69
82379;BME280;72008;48.140;11.614;2024-01-11T05:01:14;96228.34;;;-2.12;70.21
82379;BME280;72008;48.140;11.614;2024-01-11T05:02:15;96224.97;;;-2.19;70.63
82379;BME280;72008;48.140;11.614;2024-01-11T05:03:15;96235.97;;;-2.04;70.77
82379;BME280;72008;48.140;11.614;2024-01-11T05:04:16;96230.53;;;-2.09;70.57
82379;BME280;72008;48.140;11.614;2024-01-11T05:05:16;96226.38;;;-2.17;70.05
82379;BME280;72008;48.140;11.614;2024-01-11T05:06:21;96236.28;;;-2.17;69.58
82379;BME280;72008;48.140;11.614;2024-01-11T05:07:23;96224.59;;;-2.11;69.50
82379;BME280;72008;48.140;11.614;2024-01-11T05:08:27;96230.25;;;-2.08;70.26
82379;BME280;72008;48.140;11.614;2024-01-11T05:09:27;96226.38;;;-2.17;70.60
82379;BME280;72008;48.140;11.614;2024-01-11T05:10:28;96225.06;;;-2.14;69.87
82379;BME280;72008;48.140;11.614;2024-01-11T05:11:28;96229.72;;;-2.10;69.86
82379;BME280;72008;48.140;11.614;2024-01-11T05:12:29;96228.38;;;-2.07;70.01
82379;BME280;72008;48.140;11.614;2024-01-11T05:13:29;96230.63;;;-2.04;69.24
82379;BME280;72008;48.140;11.614;2024-01-11T05:14:31;96228.47;;;-2.02;69.96
82379;BME280;72008;48.140;11.614;2024-01-11T05:15:32;96231.88;;;-1.90;69.36
82379;BME280;72008;48.140;11.614;2024-01-11T05:16:32;96232.22;;;-2.03;69.23
82379;BME280;72008;48.140;11.614;2024-01-11T05:17:33;96231.16;;;-2.02;70.33
82379;BME280;72008;48.140;11.614;2024-01-11T05:18:33;96227.66;;;-2.02;69.24
82379;BME280;72008;48.140;11.614;2024-01-11T05:19:33;96222.66;;;-2.16;68.87